createdAt,value
2023-02-14T00:02:06.219Z,1.85
2023-02-14T00:07:16.680Z,1.89
2023-02-14T00:12:29.164Z,1.90
2023-02-14T00:17:40.498Z,1.93
2023-02-14T00:22:47.688Z,2.01
2023-02-14T00:27:55.787Z,2.10
2023-02-14T00:33:03.020Z,2.17
2023-02-14T00:38:10.264Z,2.23
2023-02-14T00:43:20.128Z,2.27
2023-02-14T00:48:27.379Z,2.28
2023-02-14T00:53:35.128Z,2.32
2023-02-14T00:58:42.333Z,2.38
2023-02-14T01:03:50.096Z,2.45
2023-02-14T01:08:59.000Z,2.53
2023-02-14T01:14:06.393Z,2.58
2023-02-14T01:19:14.167Z,2.58
2023-02-14T01:24:25.239Z,2.57
2023-02-14T01:29:32.402Z,2.60
2023-02-14T01:34:39.884Z,2.65
2023-02-14T01:39:47.130Z,2.70
2023-02-14T01:45:04.340Z,2.76
2023-02-14T01:50:19.564Z,2.79
2023-02-14T01:55:30.474Z,2.79
2023-02-14T02:00:57.103Z,2.81
2023-02-14T02:06:12.301Z,2.89
2023-02-14T02:11:19.478Z,2.98
2023-02-14T02:16:44.550Z,3.07
2023-02-14T02:22:13.109Z,3.11
2023-02-14T02:27:41.990Z,3.09
2023-02-14T02:33:15.717Z,3.06
2023-02-14T02:38:37.588Z,3.06
2023-02-14T02:43:53.981Z,3.08
2023-02-14T02:49:08.113Z,3.13
2023-02-14T02:54:21.547Z,3.18
2023-02-14T02:59:31.912Z,3.19
2023-02-14T03:04:54.762Z,3.15
2023-02-14T03:10:07.564Z,3.12
2023-02-14T03:15:22.694Z,3.11
2023-02-14T03:20:39.888Z,3.14
2023-02-14T03:25:56.314Z,3.14
2023-02-14T03:31:09.980Z,3.13
2023-02-14T03:36:22.119Z,3.11
2023-02-14T03:41:36.620Z,3.11
2023-02-14T03:46:49.290Z,3.13
2023-02-14T03:52:00.288Z,3.17
2023-02-14T03:57:17.341Z,3.19
2023-02-14T04:02:30.443Z,3.18
2023-02-14T04:07:55.565Z,3.13
2023-02-14T04:13:04.894Z,3.09
2023-02-14T04:18:30.824Z,3.08
2023-02-14T04:23:38.294Z,3.10
2023-02-14T04:28:45.494Z,3.13
2023-02-14T04:33:52.634Z,3.14
2023-02-14T04:38:59.822Z,3.10
2023-02-14T04:44:07.220Z,3.08
2023-02-14T04:49:14.489Z,3.12
2023-02-14T04:54:21.753Z,3.14
2023-02-14T04:59:29.329Z,3.17
2023-02-14T05:04:36.560Z,3.15
2023-02-14T05:09:43.700Z,3.13
2023-02-14T05:14:50.836Z,3.13
2023-02-14T05:19:58.086Z,3.19
2023-02-14T05:25:05.505Z,3.23
2023-02-14T05:30:15.204Z,3.23
2023-02-14T05:35:22.575Z,3.21
2023-02-14T05:40:30.199Z,3.22
2023-02-14T05:45:37.564Z,3.24
2023-02-14T05:50:45.708Z,3.28
2023-02-14T05:56:01.572Z,3.33
2023-02-14T06:01:13.542Z,3.37
2023-02-14T06:06:20.878Z,3.35
2023-02-14T06:11:38.792Z,3.33
2023-02-14T06:16:53.475Z,3.35
2023-02-14T06:22:00.663Z,3.38
2023-02-14T06:27:08.004Z,3.41
2023-02-14T06:32:15.221Z,3.40
2023-02-14T06:37:22.614Z,3.39
2023-02-14T06:42:41.192Z,3.42
2023-02-14T06:48:00.210Z,3.48
2023-02-14T06:53:07.488Z,3.55
2023-02-14T06:58:18.593Z,3.58
2023-02-14T07:03:25.963Z,3.57
2023-02-14T07:08:33.461Z,3.59
2023-02-14T07:13:40.716Z,3.60
2023-02-14T07:18:48.118Z,3.57
2023-02-14T07:23:55.771Z,3.59
2023-02-14T07:29:02.919Z,3.59
2023-02-14T07:34:10.015Z,3.62
2023-02-14T07:39:17.204Z,3.68
2023-02-14T07:44:24.550Z,3.73
2023-02-14T07:49:31.642Z,3.77
2023-02-14T07:54:38.892Z,3.78
2023-02-14T07:59:46.049Z,3.79
2023-02-14T08:04:53.254Z,3.83
2023-02-14T08:10:01.474Z,3.89
2023-02-14T08:15:26.872Z,3.95
2023-02-14T08:20:34.174Z,4.00
2023-02-14T08:25:41.379Z,4.05
2023-02-14T08:30:49.009Z,4.12
2023-02-14T08:35:56.225Z,4.21
2023-02-14T08:41:08.862Z,4.24
2023-02-14T08:46:17.045Z,4.25
2023-02-14T08:51:25.989Z,4.28
2023-02-14T08:56:35.538Z,4.34
2023-02-14T09:01:42.816Z,4.41
2023-02-14T09:06:49.947Z,4.49
2023-02-14T09:11:57.497Z,4.56
2023-02-14T09:17:05.946Z,4.61
2023-02-14T09:22:13.678Z,4.61
2023-02-14T09:27:21.389Z,4.66
2023-02-14T09:32:29.520Z,4.74
2023-02-14T09:37:54.410Z,4.83
2023-02-14T09:43:09.946Z,4.86
2023-02-14T09:48:32.379Z,4.89
2023-02-14T09:53:45.693Z,4.92
2023-02-14T09:59:00.731Z,4.96
2023-02-14T10:04:22.544Z,5.03
2023-02-14T10:09:50.134Z,5.12
2023-02-14T10:15:01.675Z,5.20
2023-02-14T10:20:19.862Z,5.24
2023-02-14T10:25:30.541Z,5.24
2023-02-14T10:30:41.406Z,5.28
2023-02-14T10:35:51.351Z,5.37
2023-02-14T10:41:31.371Z,5.47
2023-02-14T10:47:06.274Z,5.52
2023-02-14T10:52:24.162Z,5.52
2023-02-14T10:58:05.881Z,5.49
2023-02-14T11:03:15.516Z,5.50
2023-02-14T11:08:29.087Z,5.53
2023-02-14T11:13:39.692Z,5.62
2023-02-14T11:18:46.995Z,5.71
2023-02-14T11:23:54.457Z,5.78
2023-02-14T11:29:04.405Z,5.82
2023-02-14T11:34:36.916Z,5.84
2023-02-14T11:40:24.693Z,5.91
2023-02-14T11:45:37.978Z,6.08
2023-02-14T11:50:54.675Z,6.22
2023-02-14T11:56:02.094Z,6.23
2023-02-14T12:01:12.500Z,6.25
2023-02-14T12:06:27.860Z,6.32
2023-02-14T12:11:35.100Z,6.42
2023-02-14T12:16:49.207Z,6.45
2023-02-14T12:22:01.427Z,6.43
2023-02-14T12:27:22.641Z,6.44
2023-02-14T12:32:32.461Z,6.41
2023-02-14T12:37:56.070Z,6.32
2023-02-14T12:43:35.696Z,6.31
2023-02-14T12:48:57.667Z,6.30
2023-02-14T12:54:21.140Z,6.31
2023-02-14T12:59:41.515Z,6.43
2023-02-14T13:05:08.459Z,6.56
2023-02-14T13:10:30.133Z,6.66
2023-02-14T13:15:43.838Z,6.69
2023-02-14T13:20:55.533Z,6.65
2023-02-14T13:26:07.859Z,6.56
2023-02-14T13:31:15.352Z,6.52
2023-02-14T13:36:24.826Z,6.51
2023-02-14T13:42:02.699Z,6.52
2023-02-14T13:47:17.448Z,6.60
2023-02-14T13:52:46.635Z,6.72
2023-02-14T13:58:07.546Z,6.81
2023-02-14T14:04:02.307Z,6.85
2023-02-14T14:09:13.311Z,6.87
2023-02-14T14:14:37.987Z,6.88
2023-02-14T14:19:47.448Z,6.90
2023-02-14T14:25:04.164Z,6.96
2023-02-14T14:30:20.851Z,7.06
2023-02-14T14:35:29.197Z,7.16
2023-02-14T14:40:39.517Z,7.23
2023-02-14T14:45:51.035Z,7.24
2023-02-14T14:50:59.207Z,7.22
2023-02-14T14:56:16.035Z,7.18
2023-02-14T15:01:37.222Z,7.15
2023-02-14T15:06:44.670Z,7.11
2023-02-14T15:12:10.894Z,7.09
2023-02-14T15:17:26.716Z,7.13
2023-02-14T15:22:42.663Z,7.16
2023-02-14T15:27:54.259Z,7.12
2023-02-14T15:33:01.864Z,7.00
2023-02-14T15:38:12.251Z,6.81
2023-02-14T15:43:29.816Z,6.62
2023-02-14T15:48:40.676Z,6.43
2023-02-14T15:53:53.313Z,6.20
2023-02-14T15:59:07.136Z,5.99
2023-02-14T16:04:14.577Z,5.86
2023-02-14T16:09:34.367Z,5.63
2023-02-14T16:14:45.788Z,5.40
2023-02-14T16:19:53.421Z,5.20
2023-02-14T16:25:01.324Z,4.94
2023-02-14T16:30:09.212Z,4.66
2023-02-14T16:35:22.043Z,4.35
2023-02-14T16:40:31.025Z,4.03
2023-02-14T16:45:38.103Z,3.77
2023-02-14T16:50:46.315Z,3.57
2023-02-14T16:55:56.013Z,3.45
2023-02-14T17:01:03.659Z,3.29
2023-02-14T17:06:14.813Z,3.10
2023-02-14T17:11:23.182Z,2.90
2023-02-14T17:16:32.608Z,2.70
2023-02-14T17:21:39.958Z,2.51
2023-02-14T17:26:47.245Z,2.32
2023-02-14T17:31:54.820Z,2.19
2023-02-14T17:37:03.022Z,2.13
2023-02-14T17:42:12.033Z,2.06
2023-02-14T17:47:20.851Z,1.96
2023-02-14T17:52:29.902Z,1.82
2023-02-14T17:57:37.339Z,1.65
2023-02-14T18:02:44.814Z,1.41
2023-02-14T18:07:55.321Z,1.23
2023-02-14T18:13:06.746Z,1.11
2023-02-14T18:18:14.669Z,1.06
2023-02-14T18:23:21.974Z,1.02
2023-02-14T18:28:32.571Z,0.94
2023-02-14T18:33:40.716Z,0.80
2023-02-14T18:38:49.896Z,0.67
2023-02-14T18:43:57.153Z,0.51
2023-02-14T18:49:06.096Z,0.36
2023-02-14T18:54:19.839Z,0.25
2023-02-14T18:59:30.684Z,0.18
2023-02-14T19:04:38.088Z,0.16
2023-02-14T19:09:45.607Z,0.12
2023-02-14T19:14:54.494Z,0.03
2023-02-14T19:20:08.576Z,-0.11
2023-02-14T19:25:15.907Z,-0.25
2023-02-14T19:30:23.697Z,-0.38
2023-02-14T19:35:31.517Z,-0.46
2023-02-14T19:40:51.404Z,-0.45
2023-02-14T19:46:04.942Z,-0.36
2023-02-14T19:51:19.087Z,-0.32
2023-02-14T19:56:28.930Z,-0.33
2023-02-14T20:01:39.754Z,-0.44
2023-02-14T20:06:48.046Z,-0.56
2023-02-14T20:11:56.929Z,-0.68
2023-02-14T20:17:07.738Z,-0.79
2023-02-14T20:22:15.498Z,-0.84
2023-02-14T20:27:24.842Z,-0.89
2023-02-14T20:32:35.364Z,-0.91
2023-02-14T20:37:42.736Z,-0.95
2023-02-14T20:42:54.259Z,-1.04
2023-02-14T20:48:07.088Z,-1.11
2023-02-14T20:58:52.654Z,-1.23
2023-02-14T21:03:58.578Z,-1.26
2023-02-14T21:09:05.977Z,-1.23
2023-02-14T21:14:13.156Z,-1.17
2023-02-14T21:19:20.452Z,-1.06
2023-02-14T21:24:27.594Z,-1.00
2023-02-14T21:29:34.682Z,-1.05
2023-02-14T21:34:41.946Z,-1.14
2023-02-14T21:39:50.264Z,-1.29
2023-02-14T21:45:17.301Z,-1.43
2023-02-14T21:50:33.726Z,-1.51
2023-02-14T21:55:43.003Z,-1.55
2023-02-14T22:00:50.128Z,-1.53
2023-02-14T22:06:03.973Z,-1.44
2023-02-14T22:11:13.340Z,-1.31
2023-02-14T22:16:22.772Z,-1.25
2023-02-14T22:21:33.587Z,-1.25
2023-02-14T22:26:40.999Z,-1.32
2023-02-14T22:31:48.395Z,-1.38
2023-02-14T22:36:55.819Z,-1.37
2023-02-14T22:42:06.968Z,-1.27
2023-02-14T22:47:14.073Z,-1.10
2023-02-14T22:52:21.226Z,-0.94
2023-02-14T22:57:28.322Z,-0.84
2023-02-14T23:02:35.842Z,-0.81
2023-02-14T23:07:43.051Z,-0.80
2023-02-14T23:13:07.691Z,-0.79
2023-02-14T23:18:33.542Z,-0.76
2023-02-14T23:23:40.730Z,-0.69
2023-02-14T23:28:47.888Z,-0.61
2023-02-14T23:33:55.113Z,-0.59
2023-02-14T23:39:02.286Z,-0.53
2023-02-14T23:44:10.113Z,-0.47
2023-02-14T23:49:17.981Z,-0.45
2023-02-14T23:54:26.358Z,-0.43
2023-02-14T23:59:33.445Z,-0.40
